createdAt,value
2017-11-20T00:00:19.184Z,1.80
2017-11-20T00:02:45.624Z,1.80
2017-11-20T00:05:12.024Z,1.90
2017-11-20T00:07:39.156Z,1.80
2017-11-20T00:10:06.313Z,1.70
2017-11-20T00:12:33.465Z,1.80
2017-11-20T00:15:00.625Z,1.80
2017-11-20T00:17:27.030Z,1.80
2017-11-20T00:19:53.454Z,1.60
2017-11-20T00:22:19.882Z,1.60
2017-11-20T00:24:46.328Z,1.40
2017-11-20T00:27:12.772Z,1.30
2017-11-20T00:29:39.925Z,1.40
2017-11-20T00:32:07.084Z,1.40
2017-11-20T00:34:34.258Z,1.60
2017-11-20T00:37:00.657Z,1.50
2017-11-20T00:39:27.884Z,1.60
2017-11-20T00:41:54.276Z,1.60
2017-11-20T00:44:20.652Z,1.60
2017-11-20T00:46:47.056Z,1.40
2017-11-20T00:49:13.455Z,1.20
2017-11-20T00:51:39.861Z,1.20
2017-11-20T00:54:06.280Z,1.40
2017-11-20T00:56:32.693Z,1.40
2017-11-20T00:58:59.116Z,1.40
2017-11-20T01:01:25.516Z,1.30
2017-11-20T01:03:51.947Z,1.40
2017-11-20T01:06:18.383Z,1.50
2017-11-20T01:08:44.842Z,1.50
2017-11-20T01:11:11.271Z,1.50
2017-11-20T01:13:37.676Z,1.50
2017-11-20T01:16:04.857Z,1.60
2017-11-20T01:18:31.276Z,1.60
2017-11-20T01:20:57.652Z,1.60
2017-11-20T01:23:24.052Z,1.60
2017-11-20T01:25:50.480Z,1.50
2017-11-20T01:28:16.861Z,1.40
2017-11-20T01:30:43.292Z,1.20
2017-11-20T01:33:09.715Z,1.10
2017-11-20T01:35:36.117Z,1.10
2017-11-20T01:38:02.556Z,1.20
2017-11-20T01:40:29.009Z,1.20
2017-11-20T01:42:56.190Z,1.30
2017-11-20T01:45:23.373Z,1.30
2017-11-20T01:47:49.804Z,1.20
2017-11-20T01:50:16.241Z,1.20
2017-11-20T01:52:42.672Z,1.20
2017-11-20T01:55:09.155Z,1.30
2017-11-20T01:57:35.580Z,1.30
2017-11-20T02:00:02.022Z,1.30
2017-11-20T02:02:28.487Z,1.20
2017-11-20T02:04:55.666Z,1.10
2017-11-20T02:07:22.061Z,1.00
2017-11-20T02:09:49.246Z,1.20
2017-11-20T02:12:15.678Z,1.10
2017-11-20T02:14:42.116Z,1.30
2017-11-20T02:17:08.516Z,1.40
2017-11-20T02:19:35.692Z,1.30
2017-11-20T02:22:02.129Z,1.30
2017-11-20T02:24:33.539Z,1.30
2017-11-20T02:26:59.976Z,1.20
2017-11-20T02:29:27.200Z,1.20
2017-11-20T02:31:53.646Z,1.20
2017-11-20T02:34:20.876Z,1.20
2017-11-20T02:36:47.310Z,1.20
2017-11-20T02:39:14.486Z,1.10
2017-11-20T02:41:41.677Z,1.10
2017-11-20T02:44:08.151Z,1.10
2017-11-20T02:46:35.336Z,1.20
2017-11-20T02:49:02.530Z,1.30
2017-11-20T02:51:28.956Z,1.20
2017-11-20T02:53:55.552Z,1.20
2017-11-20T02:56:22.717Z,1.50
2017-11-20T02:58:49.173Z,1.50
2017-11-20T03:01:15.642Z,1.60
2017-11-20T03:03:43.054Z,1.90
2017-11-20T03:06:09.483Z,1.80
2017-11-20T03:08:35.932Z,1.90
2017-11-20T03:11:02.386Z,1.80
2017-11-20T03:13:28.825Z,1.70
2017-11-20T03:15:55.291Z,1.60
2017-11-20T03:18:22.449Z,1.60
2017-11-20T03:20:49.659Z,1.60
2017-11-20T03:23:16.121Z,1.60
2017-11-20T03:25:42.573Z,1.60
2017-11-20T03:28:09.020Z,1.60
2017-11-20T03:30:35.455Z,1.70
2017-11-20T03:33:01.934Z,1.70
2017-11-20T03:35:28.336Z,1.70
2017-11-20T03:37:54.931Z,1.70
2017-11-20T03:40:22.103Z,1.60
2017-11-20T03:42:48.640Z,1.60
2017-11-20T03:45:15.109Z,1.60
2017-11-20T03:47:41.509Z,1.70
2017-11-20T03:50:07.958Z,1.60
2017-11-20T03:52:34.393Z,1.60
2017-11-20T03:55:00.771Z,1.70
2017-11-20T03:57:27.238Z,1.70
2017-11-20T03:59:53.641Z,1.80
2017-11-20T04:02:20.846Z,1.60
2017-11-20T04:04:48.002Z,1.40
2017-11-20T04:07:14.416Z,1.40
2017-11-20T04:09:40.852Z,1.40
2017-11-20T04:12:07.277Z,1.40
2017-11-20T04:14:33.694Z,1.30
2017-11-20T04:17:00.109Z,1.30
2017-11-20T04:19:27.268Z,1.20
2017-11-20T04:21:54.420Z,1.20
2017-11-20T04:24:21.590Z,1.30
2017-11-20T04:26:47.998Z,1.30
2017-11-20T04:29:15.177Z,1.30
2017-11-20T04:31:41.624Z,1.30
2017-11-20T04:34:08.110Z,1.30
2017-11-20T04:36:35.253Z,1.20
2017-11-20T04:39:02.463Z,1.20
2017-11-20T04:41:28.885Z,1.20
2017-11-20T04:43:55.321Z,1.30
2017-11-20T04:46:21.771Z,1.30
2017-11-20T04:48:48.201Z,1.20
2017-11-20T04:51:14.641Z,1.20
2017-11-20T04:53:41.096Z,1.30
2017-11-20T04:56:07.545Z,1.40
2017-11-20T04:58:34.704Z,1.50
2017-11-20T05:01:01.885Z,1.60
2017-11-20T05:03:28.289Z,1.50
2017-11-20T05:05:55.452Z,1.80
2017-11-20T05:08:21.869Z,1.70
2017-11-20T05:10:49.049Z,1.70
2017-11-20T05:13:15.463Z,1.70
2017-11-20T05:15:41.864Z,1.70
2017-11-20T05:18:08.286Z,1.80
2017-11-20T05:20:34.684Z,1.90
2017-11-20T05:23:01.105Z,2.10
2017-11-20T05:25:27.525Z,2.40
2017-11-20T05:27:53.916Z,2.60
2017-11-20T05:30:20.366Z,2.80
2017-11-20T05:32:46.828Z,3.10
2017-11-20T05:35:13.244Z,3.20
2017-11-20T05:37:40.392Z,3.40
2017-11-20T05:40:07.591Z,3.50
2017-11-20T05:42:34.004Z,3.40
2017-11-20T05:45:00.380Z,3.50
2017-11-20T05:47:26.837Z,3.60
2017-11-20T05:49:53.315Z,3.70
2017-11-20T05:52:19.775Z,3.70
2017-11-20T05:54:46.356Z,3.80
2017-11-20T05:57:12.872Z,3.80
2017-11-20T05:59:40.097Z,3.90
2017-11-20T06:02:06.521Z,3.80
2017-11-20T06:04:32.961Z,3.90
2017-11-20T06:06:59.385Z,4.00
2017-11-20T06:09:25.790Z,4.10
2017-11-20T06:11:52.201Z,4.10
2017-11-20T06:14:19.355Z,4.20
2017-11-20T06:16:46.496Z,4.20
2017-11-20T06:19:13.664Z,4.00
2017-11-20T06:21:40.062Z,4.00
2017-11-20T06:24:06.516Z,4.20
2017-11-20T06:26:33.677Z,4.30
2017-11-20T06:29:00.066Z,4.30
2017-11-20T06:31:26.476Z,4.30
2017-11-20T06:33:52.884Z,4.40
2017-11-20T06:36:19.269Z,4.40
2017-11-20T06:38:45.685Z,4.40
2017-11-20T06:41:12.832Z,4.40
2017-11-20T06:43:39.265Z,4.40
2017-11-20T06:46:05.736Z,4.40
2017-11-20T06:48:32.883Z,4.50
2017-11-20T06:51:00.073Z,4.60
2017-11-20T06:53:26.488Z,4.60
2017-11-20T06:55:53.076Z,4.60
2017-11-20T06:58:20.286Z,4.70
2017-11-20T07:00:46.692Z,4.70
2017-11-20T07:03:13.972Z,4.80
2017-11-20T07:05:40.355Z,4.80
2017-11-20T07:08:06.755Z,4.80
2017-11-20T07:10:33.173Z,4.80
2017-11-20T07:12:59.588Z,4.90
2017-11-20T07:15:26.766Z,5.00
2017-11-20T07:17:53.159Z,5.00
2017-11-20T07:20:20.325Z,5.00
2017-11-20T07:22:46.720Z,5.00
2017-11-20T07:25:25.457Z,5.10
2017-11-20T07:28:00.131Z,5.10
2017-11-20T07:30:30.184Z,5.20
2017-11-20T07:32:56.668Z,5.20
2017-11-20T07:35:23.293Z,5.20
2017-11-20T07:38:01.914Z,5.30
2017-11-20T07:40:40.455Z,5.30
2017-11-20T07:43:07.661Z,5.40
2017-11-20T07:45:34.869Z,5.40
2017-11-20T07:48:01.255Z,5.40
2017-11-20T07:50:27.677Z,5.50
2017-11-20T07:52:54.867Z,5.50
2017-11-20T07:55:22.155Z,5.50
2017-11-20T07:57:48.660Z,5.40
2017-11-20T08:00:15.405Z,5.50
2017-11-20T08:02:42.615Z,5.70
2017-11-20T08:05:09.838Z,5.70
2017-11-20T08:07:37.085Z,5.80
2017-11-20T08:10:04.264Z,5.90
2017-11-20T08:12:31.416Z,6.00
2017-11-20T08:14:58.620Z,6.10
2017-11-20T08:17:25.816Z,6.20
2017-11-20T08:19:52.963Z,6.30
2017-11-20T08:22:20.100Z,6.30
2017-11-20T08:24:46.512Z,6.30
2017-11-20T08:27:13.680Z,6.50
2017-11-20T08:29:40.079Z,6.40
2017-11-20T08:32:06.492Z,6.50
2017-11-20T08:34:33.703Z,6.60
2017-11-20T08:37:00.853Z,6.70
2017-11-20T08:39:28.024Z,6.70
2017-11-20T08:41:55.160Z,6.80
2017-11-20T08:44:22.299Z,6.90
2017-11-20T08:46:48.792Z,6.90
2017-11-20T08:49:15.443Z,7.10
2017-11-20T08:51:42.601Z,7.10
2017-11-20T08:54:09.114Z,7.10
2017-11-20T08:56:35.577Z,7.20
2017-11-20T08:59:02.085Z,7.20
2017-11-20T09:01:28.583Z,7.20
2017-11-20T09:03:55.072Z,7.20
2017-11-20T09:06:21.548Z,7.20
2017-11-20T09:08:48.702Z,7.20
2017-11-20T09:11:15.265Z,7.30
2017-11-20T09:13:41.716Z,7.40
2017-11-20T09:16:08.904Z,7.40
2017-11-20T09:18:36.108Z,7.50
2017-11-20T09:21:02.637Z,7.50
2017-11-20T09:23:29.231Z,7.60
2017-11-20T09:25:55.699Z,7.70
2017-11-20T09:28:22.135Z,7.80
2017-11-20T09:30:48.633Z,7.90
2017-11-20T09:33:15.861Z,8.00
2017-11-20T09:35:42.281Z,8.00
2017-11-20T09:38:08.728Z,8.20
2017-11-20T09:40:35.123Z,8.30
2017-11-20T09:43:01.558Z,8.40
2017-11-20T09:45:27.964Z,8.50
2017-11-20T09:47:55.161Z,9.00
2017-11-20T09:50:21.619Z,9.00
2017-11-20T09:52:48.061Z,9.30
2017-11-20T09:55:14.524Z,9.50
2017-11-20T09:57:40.976Z,9.90
2017-11-20T10:00:07.440Z,10.30
2017-11-20T10:02:33.899Z,10.50
2017-11-20T10:05:01.140Z,10.80
2017-11-20T10:07:27.616Z,10.80
2017-11-20T10:09:54.056Z,10.90
2017-11-20T10:12:20.500Z,11.10
2017-11-20T10:14:46.971Z,11.20
2017-11-20T10:17:13.454Z,11.60
2017-11-20T10:19:39.900Z,12.80
2017-11-20T10:22:06.379Z,13.70
2017-11-20T10:24:32.845Z,15.00
2017-11-20T10:26:59.297Z,16.70
2017-11-20T10:29:25.837Z,18.10
2017-11-20T10:31:53.040Z,18.60
2017-11-20T10:34:19.519Z,18.60
2017-11-20T10:36:45.976Z,19.40
2017-11-20T10:39:12.420Z,19.10
2017-11-20T10:41:38.867Z,17.10
2017-11-20T10:44:05.445Z,16.10
2017-11-20T10:46:31.909Z,16.10
2017-11-20T10:48:58.357Z,17.00
2017-11-20T10:51:24.808Z,17.40
2017-11-20T10:53:51.259Z,18.20
2017-11-20T10:56:18.465Z,19.20
2017-11-20T10:58:44.898Z,19.20
2017-11-20T11:01:11.323Z,19.40
2017-11-20T11:03:37.793Z,18.10
2017-11-20T11:06:04.257Z,17.70
2017-11-20T11:08:30.693Z,16.50
2017-11-20T11:10:57.157Z,16.40
2017-11-20T11:13:23.620Z,17.70
2017-11-20T11:15:50.088Z,18.20
2017-11-20T11:18:16.578Z,17.00
2017-11-20T11:20:43.013Z,16.80
2017-11-20T11:23:09.469Z,16.10
2017-11-20T11:25:36.640Z,15.40
2017-11-20T11:28:03.115Z,15.40
2017-11-20T11:30:29.650Z,14.80
2017-11-20T11:32:56.133Z,14.20
2017-11-20T11:35:23.561Z,14.70
2017-11-20T11:37:49.989Z,14.10
2017-11-20T11:40:16.452Z,13.30
2017-11-20T11:42:43.622Z,12.10
2017-11-20T11:45:10.166Z,12.10
2017-11-20T11:47:36.616Z,11.80
2017-11-20T11:50:03.065Z,11.70
2017-11-20T11:52:29.559Z,11.60
2017-11-20T11:54:56.067Z,11.70
2017-11-20T11:57:23.257Z,11.60
2017-11-20T11:59:49.716Z,11.60
2017-11-20T12:02:16.184Z,11.60
2017-11-20T12:04:43.405Z,11.60
2017-11-20T12:07:10.729Z,11.50
2017-11-20T12:09:37.194Z,11.50
2017-11-20T12:12:03.697Z,11.30
2017-11-20T12:14:30.145Z,11.00
2017-11-20T12:16:56.613Z,10.80
2017-11-20T12:19:23.173Z,10.70
2017-11-20T12:21:49.689Z,10.60
2017-11-20T12:24:16.185Z,10.70
2017-11-20T12:26:42.633Z,10.50
2017-11-20T12:29:09.135Z,10.50
2017-11-20T12:31:35.583Z,10.40
2017-11-20T12:34:02.089Z,10.30
2017-11-20T12:36:28.541Z,10.30
2017-11-20T12:38:55.016Z,10.50
2017-11-20T12:41:21.488Z,11.10
2017-11-20T12:43:48.055Z,11.50
2017-11-20T12:46:14.593Z,11.80
2017-11-20T12:48:41.121Z,12.30
2017-11-20T12:51:07.651Z,12.90
2017-11-20T12:53:34.164Z,13.10
2017-11-20T12:56:00.620Z,13.80
2017-11-20T12:58:27.281Z,13.80
2017-11-20T13:00:53.873Z,13.00
2017-11-20T13:03:20.389Z,12.60
2017-11-20T13:05:47.596Z,14.30
2017-11-20T13:08:14.021Z,14.20
2017-11-20T13:10:40.520Z,13.90
2017-11-20T13:13:07.714Z,13.90
2017-11-20T13:15:34.206Z,13.90
2017-11-20T13:18:01.383Z,13.80
2017-11-20T13:20:27.883Z,13.80
2017-11-20T13:22:55.133Z,14.70
2017-11-20T13:25:22.316Z,14.60
2017-11-20T13:27:48.734Z,14.60
2017-11-20T13:30:15.962Z,14.20
2017-11-20T13:32:42.458Z,14.20
2017-11-20T13:35:08.897Z,13.60
2017-11-20T13:37:35.397Z,13.20
2017-11-20T13:40:01.852Z,12.50
2017-11-20T13:42:28.344Z,12.10
2017-11-20T13:44:55.598Z,11.40
2017-11-20T13:47:22.999Z,11.20
2017-11-20T13:49:50.242Z,11.00
2017-11-20T13:52:16.696Z,11.00
2017-11-20T13:54:43.577Z,10.90
2017-11-20T13:57:10.133Z,10.70
2017-11-20T13:59:37.539Z,10.40
2017-11-20T14:02:03.983Z,10.40
2017-11-20T14:04:30.520Z,10.30
2017-11-20T14:06:57.441Z,10.20
2017-11-20T14:09:24.060Z,10.10
2017-11-20T14:11:50.616Z,9.90
2017-11-20T14:14:17.172Z,9.80
2017-11-20T14:16:43.831Z,9.80
2017-11-20T14:19:11.024Z,9.70
2017-11-20T14:21:37.552Z,9.60
2017-11-20T14:24:04.003Z,9.50
2017-11-20T14:26:30.613Z,9.40
2017-11-20T14:28:57.213Z,9.30
2017-11-20T14:31:26.898Z,9.10
2017-11-20T14:33:53.969Z,9.10
2017-11-20T14:36:20.892Z,9.10
2017-11-20T14:38:47.506Z,9.00
2017-11-20T14:41:14.510Z,9.00
2017-11-20T14:43:41.316Z,9.00
2017-11-20T14:46:08.000Z,9.00
2017-11-20T14:48:39.676Z,9.00
2017-11-20T14:54:03.124Z,8.80
2017-11-20T14:56:30.504Z,8.80
2017-11-20T14:58:57.024Z,8.80
2017-11-20T15:01:33.225Z,8.70
2017-11-20T15:03:59.793Z,8.60
2017-11-20T15:06:26.257Z,8.60
2017-11-20T15:08:53.610Z,8.60
2017-11-20T15:11:20.842Z,8.60
2017-11-20T15:13:47.449Z,8.50
2017-11-20T15:16:14.880Z,8.50
2017-11-20T15:18:41.575Z,8.40
2017-11-20T15:21:08.792Z,8.30
2017-11-20T15:23:35.309Z,8.30
2017-11-20T15:26:01.910Z,8.20
2017-11-20T15:28:29.161Z,8.20
2017-11-20T15:30:56.374Z,8.20
2017-11-20T15:33:22.851Z,8.10
2017-11-20T15:35:50.078Z,8.30
2017-11-20T15:38:16.565Z,8.30
2017-11-20T15:40:43.032Z,8.30
2017-11-20T15:43:09.480Z,8.30
2017-11-20T15:45:35.936Z,8.30
2017-11-20T15:48:03.170Z,8.20
2017-11-20T15:50:29.658Z,8.20
2017-11-20T15:52:56.342Z,8.20
2017-11-20T15:55:22.928Z,8.20
2017-11-20T15:57:49.358Z,8.10
2017-11-20T16:00:16.112Z,8.00
2017-11-20T16:02:43.085Z,7.90
2017-11-20T16:05:09.981Z,7.90
2017-11-20T16:07:36.566Z,7.70
2017-11-20T16:10:03.149Z,7.70
2017-11-20T16:12:29.610Z,7.60
2017-11-20T16:14:56.641Z,7.60
2017-11-20T16:17:23.226Z,7.50
2017-11-20T16:19:49.973Z,7.50
2017-11-20T16:22:16.436Z,7.50
2017-11-20T16:24:43.075Z,7.40
2017-11-20T16:27:09.655Z,7.30
2017-11-20T16:29:37.110Z,7.20
2017-11-20T16:32:03.552Z,7.20
2017-11-20T16:34:33.293Z,7.20
2017-11-20T16:37:02.721Z,7.20
2017-11-20T16:39:29.134Z,7.10
2017-11-20T16:41:57.204Z,7.00
2017-11-20T16:44:28.180Z,7.00
2017-11-20T16:46:54.754Z,7.00
2017-11-20T16:49:21.233Z,7.00
2017-11-20T16:51:48.036Z,7.00
2017-11-20T16:54:14.705Z,6.90
2017-11-20T16:56:41.278Z,6.90
2017-11-20T16:59:07.988Z,6.90
2017-11-20T17:01:58.625Z,6.80
2017-11-20T17:04:25.181Z,6.80
2017-11-20T17:06:51.576Z,6.70
2017-11-20T17:09:18.033Z,6.70
2017-11-20T17:11:44.455Z,6.70
2017-11-20T17:14:10.902Z,6.70
2017-11-20T17:16:37.313Z,6.80
2017-11-20T17:19:03.764Z,6.70
2017-11-20T17:21:30.192Z,6.70
2017-11-20T17:23:56.861Z,6.60
2017-11-20T17:26:24.028Z,6.60
2017-11-20T17:28:51.200Z,6.50
2017-11-20T17:31:17.617Z,6.50
2017-11-20T17:33:44.845Z,6.50
2017-11-20T17:36:12.024Z,6.40
2017-11-20T17:38:39.184Z,6.30
2017-11-20T17:41:05.649Z,6.30
2017-11-20T17:43:32.069Z,6.30
2017-11-20T17:45:58.462Z,6.40
2017-11-20T17:48:25.882Z,6.40
2017-11-20T17:50:52.701Z,6.30
2017-11-20T17:53:19.217Z,6.40
2017-11-20T17:55:45.745Z,6.30
2017-11-20T17:58:12.137Z,6.30
2017-11-20T18:00:38.700Z,6.30
2017-11-20T18:03:05.132Z,6.40
2017-11-20T18:05:32.354Z,6.40
2017-11-20T18:07:58.793Z,6.40
2017-11-20T18:10:25.941Z,6.40
2017-11-20T18:12:52.436Z,6.30
2017-11-20T18:15:18.935Z,6.30
2017-11-20T18:17:45.629Z,6.30
2017-11-20T18:20:12.258Z,6.30
2017-11-20T18:22:38.757Z,6.20
2017-11-20T18:25:06.749Z,6.10
2017-11-20T18:27:33.308Z,6.10
2017-11-20T18:29:59.761Z,6.10
2017-11-20T18:32:26.209Z,6.20
2017-11-20T18:34:53.465Z,6.10
2017-11-20T18:37:20.095Z,6.10
2017-11-20T18:39:46.533Z,6.10
2017-11-20T18:42:13.748Z,6.00
2017-11-20T18:44:40.169Z,6.00
2017-11-20T18:47:06.978Z,5.90
2017-11-20T18:49:33.498Z,6.00
2017-11-20T18:52:00.028Z,6.00
2017-11-20T18:54:27.240Z,6.00
2017-11-20T18:56:53.700Z,6.00
2017-11-20T18:59:20.245Z,5.90
2017-11-20T19:01:59.679Z,5.90
2017-11-20T19:04:39.087Z,5.90
2017-11-20T19:07:17.642Z,5.90
2017-11-20T19:09:44.089Z,5.80
2017-11-20T19:12:11.258Z,5.80
2017-11-20T19:14:37.739Z,5.70
2017-11-20T19:17:04.352Z,5.70
2017-11-20T19:19:30.788Z,5.70
2017-11-20T19:21:57.208Z,5.60
2017-11-20T19:24:23.662Z,5.50
2017-11-20T19:26:50.091Z,5.50
2017-11-20T19:29:16.572Z,5.40
2017-11-20T19:31:43.736Z,5.30
2017-11-20T19:34:10.961Z,5.30
2017-11-20T19:36:37.400Z,5.20
2017-11-20T19:39:03.865Z,5.40
2017-11-20T19:41:30.327Z,5.40
2017-11-20T19:43:56.820Z,5.30
2017-11-20T19:46:23.256Z,5.20
2017-11-20T19:48:50.393Z,5.30
2017-11-20T19:51:17.553Z,5.40
2017-11-20T19:53:44.777Z,5.40
2017-11-20T19:56:11.969Z,5.30
2017-11-20T19:58:38.360Z,5.30
2017-11-20T20:01:04.833Z,5.40
2017-11-20T20:03:31.257Z,5.40
2017-11-20T20:05:57.755Z,5.40
2017-11-20T20:08:24.915Z,5.30
2017-11-20T20:10:51.298Z,5.30
2017-11-20T20:13:17.769Z,5.30
2017-11-20T20:18:34.321Z,5.20
2017-11-20T20:21:01.500Z,5.20
2017-11-20T20:23:28.049Z,5.20
2017-11-20T20:25:54.448Z,5.20
2017-11-20T20:28:21.614Z,5.40
2017-11-20T20:30:47.993Z,5.30
2017-11-20T20:33:14.417Z,5.50
2017-11-20T20:35:40.809Z,5.40
2017-11-20T20:38:07.192Z,5.40
2017-11-20T20:40:33.673Z,5.30
2017-11-20T20:43:00.187Z,5.30
2017-11-20T20:45:26.694Z,5.20
2017-11-20T20:47:53.942Z,5.20
2017-11-20T20:50:20.357Z,5.10
2017-11-20T20:52:46.777Z,5.10
2017-11-20T20:55:13.187Z,5.00
2017-11-20T20:57:39.732Z,4.90
2017-11-20T21:00:06.213Z,4.90
2017-11-20T21:02:32.653Z,4.80
2017-11-20T21:04:59.083Z,4.80
2017-11-20T21:07:26.442Z,4.70
2017-11-20T21:09:58.882Z,4.70
2017-11-20T21:12:25.271Z,4.70
2017-11-20T21:14:52.495Z,4.90
2017-11-20T21:17:19.661Z,5.00
2017-11-20T21:19:53.245Z,5.00
2017-11-20T21:22:19.745Z,5.10
2017-11-20T21:24:46.181Z,5.20
2017-11-20T21:27:12.580Z,5.10
2017-11-20T21:29:39.144Z,5.10
2017-11-20T21:32:05.555Z,5.10
2017-11-20T21:34:32.717Z,5.20
2017-11-20T21:36:59.154Z,5.20
2017-11-20T21:39:25.553Z,5.20
2017-11-20T21:41:52.719Z,5.10
2017-11-20T21:44:19.913Z,5.00
2017-11-20T21:46:46.321Z,5.00
2017-11-20T21:49:12.792Z,5.00
2017-11-20T21:51:39.236Z,5.00
2017-11-20T21:54:05.689Z,5.00
2017-11-20T21:56:32.865Z,4.90
2017-11-20T21:58:59.283Z,4.90
2017-11-20T22:01:26.410Z,4.90
2017-11-20T22:03:52.840Z,4.80
2017-11-20T22:06:19.281Z,4.80
2017-11-20T22:08:46.449Z,4.80
2017-11-20T22:11:13.641Z,4.80
2017-11-20T22:13:40.094Z,4.80
2017-11-20T22:16:06.537Z,4.80
2017-11-20T22:18:32.961Z,4.80
2017-11-20T22:20:59.378Z,4.80
2017-11-20T22:23:25.805Z,4.80
2017-11-20T22:25:52.264Z,4.80
2017-11-20T22:28:18.725Z,4.80
2017-11-20T22:30:45.904Z,4.90
2017-11-20T22:33:12.357Z,4.90
2017-11-20T22:35:39.498Z,5.00
2017-11-20T22:38:05.968Z,5.00
2017-11-20T22:40:32.406Z,4.90
2017-11-20T22:42:58.836Z,5.00
2017-11-20T22:45:25.298Z,4.90
2017-11-20T22:47:52.472Z,5.00
2017-11-20T22:50:18.864Z,5.00
2017-11-20T22:52:45.325Z,5.00
2017-11-20T22:55:11.713Z,5.00
2017-11-20T22:57:38.156Z,5.00
2017-11-20T23:00:05.314Z,4.90
2017-11-20T23:02:31.785Z,4.90
2017-11-20T23:04:58.197Z,4.90
2017-11-20T23:07:27.065Z,4.90
2017-11-20T23:09:54.020Z,4.90
2017-11-20T23:12:21.210Z,4.90
2017-11-20T23:14:47.634Z,4.90
2017-11-20T23:17:14.042Z,4.90
2017-11-20T23:19:41.207Z,5.00
2017-11-20T23:22:07.626Z,5.00
2017-11-20T23:24:34.909Z,4.90
2017-11-20T23:27:01.336Z,4.90
2017-11-20T23:29:27.781Z,4.90
2017-11-20T23:31:54.204Z,4.90
2017-11-20T23:34:20.643Z,4.80
2017-11-20T23:36:47.064Z,4.90
2017-11-20T23:39:13.463Z,5.00
2017-11-20T23:41:39.878Z,5.00
2017-11-20T23:44:06.334Z,5.10
2017-11-20T23:46:33.480Z,5.00
2017-11-20T23:48:59.877Z,5.00
2017-11-20T23:51:26.305Z,5.00
2017-11-20T23:53:52.845Z,5.00
2017-11-20T23:56:19.290Z,4.90
2017-11-20T23:58:45.662Z,5.00
